Hachinohemaru — JE3089 — position and weather

sailwx.info

Track history (hours):
 
Tides and Currents Weather Stations Pressure Air Temp Water Temp Dewpoint Dewpoint Depression Visibility Wind Speed Wind Dir Waves Ship Positions

Hachinohemaru

Last reported at 2014-Sep-17 18:31 UTC. Time now 2014-Sep-21 22:11 UTC.
Position N 36°06' E 140°48'.

Length 168 m; draft 6.5 m.

Type: Cargo ship. MMSI: 431700018.

Date/timePositionNaut miles runAvg speedWind from/ knotsBaromVisibWave heightAir tempDewpointWater temp
2014-Sep-17 18:31N 36°06' E 140°48'1212.3
2014-Sep-17 17:33N 35°56' E 140°42'0 0.4
2014-Sep-17 16:28N 35°56' E 140°41'0 0.0
2014-Sep-17 06:26N 35°56' E 140°41'0 0.0
2014-Sep-17 05:20N 35°56' E 140°41'4 5.3
2014-Sep-17 04:32N 35°58' E 140°45'0 0.0
2014-Sep-16 23:33N 35°58' E 140°45'1413.1
2014-Sep-16 22:30N 35°47' E 140°56'1112.2
2014-Sep-16 21:33N 35°36' E 140°54'1313.3
2014-Sep-16 20:33N 35°24' E 140°46'1514.2
2014-Sep-16 19:31N 35°12' E 140°37'1815.4
2014-Sep-16 18:21N 34°59' E 140°21'1415.9
2014-Sep-16 17:28N 34°52' E 140°06'1816.4
2014-Sep-16 16:23N 34°44' E 139°47'  
2014-Sep-11 23:08N 34°40' E 139°31'914.5
2014-Sep-11 22:32N 34°43' E 139°41'1313.5
2014-Sep-11 21:33N 34°48' E 139°56'1313.1
2014-Sep-11 20:33N 34°55' E 140°09'1212.2
2014-Sep-11 19:33N 35°02' E 140°22'1110.9
2014-Sep-11 18:33N 35°08' E 140°32'1313.4
2014-Sep-11 17:33N 35°19' E 140°41'1414.1
2014-Sep-11 16:33N 35°30' E 140°52'1413.9
2014-Sep-11 15:32N 35°44' E 140°56'1313.8
2014-Sep-11 14:33N 35°56' E 140°47'5 0.9
2014-Sep-11 09:05N 35°56' E 140°41'0 0.0
2014-Sep-11 08:32N 35°56' E 140°41'0 0.0
2014-Sep-11 07:32N 35°56' E 140°41'0 0.0
2014-Sep-11 06:11N 35°56' E 140°41'0 0.0
2014-Sep-11 05:32N 35°56' E 140°41'0 0.0
2014-Sep-11 02:12N 35°55' E 140°41'  
2014-Sep-08 17:17N 36°10' E 140°48'1014.2
2014-Sep-08 16:33N 36°01' E 140°44'5 4.4
2014-Sep-08 15:20N 35°56' E 140°41'0 0.0
2014-Sep-08 14:29N 35°56' E 140°41'3 0.3
2014-Sep-08 03:33N 35°58' E 140°43'2311.0
2014-Sep-08 01:29N 35°38' E 140°55'1213.2
2014-Sep-08 00:33N 35°28' E 140°46'1713.4
2014-Sep-07 23:17N 35°13' E 140°36'1415.4
2014-Sep-07 22:24N 35°03' E 140°25'1315.6
2014-Sep-07 21:33N 34°56' E 140°11'1414.2
2014-Sep-07 20:33N 34°48' E 139°57'1515.3
2014-Sep-07 19:33N 34°42' E 139°40'  
Track history (hours):
 
Tides and Currents Weather Stations Pressure Air Temp Water Temp Dewpoint Dewpoint Depression Visibility Wind Speed Wind Dir Waves Ship Positions

Hachinohemaru

Last reported at 2014-Sep-17 18:31 UTC. Time now 2014-Sep-21 22:11 UTC.
Position N 36°06' E 140°48'.

Length 168 m; draft 6.5 m.

Type: Cargo ship. MMSI: 431700018.

Date/timePositionNaut miles runAvg speedWind from/ knotsBaromVisibWave heightAir tempDewpointWater temp
2014-Sep-17 18:31N 36°06' E 140°48'1212.3
2014-Sep-17 17:33N 35°56' E 140°42'0 0.4
2014-Sep-17 16:28N 35°56' E 140°41'0 0.0
2014-Sep-17 06:26N 35°56' E 140°41'0 0.0
2014-Sep-17 05:20N 35°56' E 140°41'4 5.3
2014-Sep-17 04:32N 35°58' E 140°45'0 0.0
2014-Sep-16 23:33N 35°58' E 140°45'1413.1
2014-Sep-16 22:30N 35°47' E 140°56'1112.2
2014-Sep-16 21:33N 35°36' E 140°54'1313.3
2014-Sep-16 20:33N 35°24' E 140°46'1514.2
2014-Sep-16 19:31N 35°12' E 140°37'1815.4
2014-Sep-16 18:21N 34°59' E 140°21'1415.9
2014-Sep-16 17:28N 34°52' E 140°06'1816.4
2014-Sep-16 16:23N 34°44' E 139°47'  
2014-Sep-11 23:08N 34°40' E 139°31'914.5
2014-Sep-11 22:32N 34°43' E 139°41'1313.5
2014-Sep-11 21:33N 34°48' E 139°56'1313.1
2014-Sep-11 20:33N 34°55' E 140°09'1212.2
2014-Sep-11 19:33N 35°02' E 140°22'1110.9
2014-Sep-11 18:33N 35°08' E 140°32'1313.4
2014-Sep-11 17:33N 35°19' E 140°41'1414.1
2014-Sep-11 16:33N 35°30' E 140°52'1413.9
2014-Sep-11 15:32N 35°44' E 140°56'1313.8
2014-Sep-11 14:33N 35°56' E 140°47'5 0.9
2014-Sep-11 09:05N 35°56' E 140°41'0 0.0
2014-Sep-11 08:32N 35°56' E 140°41'0 0.0
2014-Sep-11 07:32N 35°56' E 140°41'0 0.0
2014-Sep-11 06:11N 35°56' E 140°41'0 0.0
2014-Sep-11 05:32N 35°56' E 140°41'0 0.0
2014-Sep-11 02:12N 35°55' E 140°41'  
2014-Sep-08 17:17N 36°10' E 140°48'1014.2
2014-Sep-08 16:33N 36°01' E 140°44'5 4.4
2014-Sep-08 15:20N 35°56' E 140°41'0 0.0
2014-Sep-08 14:29N 35°56' E 140°41'3 0.3
2014-Sep-08 03:33N 35°58' E 140°43'2311.0
2014-Sep-08 01:29N 35°38' E 140°55'1213.2
2014-Sep-08 00:33N 35°28' E 140°46'1713.4
2014-Sep-07 23:17N 35°13' E 140°36'1415.4
2014-Sep-07 22:24N 35°03' E 140°25'1315.6
2014-Sep-07 21:33N 34°56' E 140°11'1414.2
2014-Sep-07 20:33N 34°48' E 139°57'1515.3
2014-Sep-07 19:33N 34°42' E 139°40'  

Dump ship's entire track history